Portada
METAR-TAF:

METAR-TAF

Aeropuertos :

Owatonna Degner Regional Airport

Owatonna, Minnesota, Estados Unidos

latitud: 44-07N, longitud: 093-15W, altitud: 350 m

Observación

El informe se hizo hace 20 minutos, a las 00:53 UTC
Viento 10 kt del noroeste
Temperatura 21°C
Humedad 40%
Presión 1014 hPa
Visibilidad: 16.1 km
Cielo despejado

METAR: KOWA 290053Z AUTO 31010KT 10SM CLR 21/07 A2995 RMK AO2

Hora: 20:13 (01:13 UTC)


TAF: falta

Observaciones y pronósticos meteorológicos de más de 4000 aeropuertos (mensajes METAR y TAF).

Los puntos amarillos y rojos representan las estaciones disponibles.

Ponga el ratón en el punto deseado para ver el nombre de la estación.

Haga clic para ver las observaciones y los pronósticos meteorológicos.

Para cambiar el mapa : haga clic en los botones verdes con una cruz de color negro para hacer un zoom, en el botón verde con un guión para alejar o en las flechas verdes para mapas adyacentes.


METAR-TAF: